Tiempo atmosférico en la estación meteorológica de Sant Hilari, Girona (810 m.)



Fecha
DESCASC
Temp. máxima en grados centígrados (hora)
DESCASC
Temp. mínima en grados centígrados (hora)
DESCASC
Temp. media en grados centígrados
DESCASC
Racha de viento máxima en m/sg (hora)
DESCASC
Velocidad máxima media en intervalos de 10 minutos(hora)
DESCASC
Precipitaciones diarias en mm
DESCASC
Precipitaciones de 00:00 a 06:00 en mm
DESCASC
Precipitaciones de 06:00 a 12:00 en mm
DESCASC
Precipitaciones de 12:00 a 18:00 en mm
DESCASC
Precipitaciones de 18:00 a 24:00 en mm
DESCASC
03-12-2020 9.5 (13:30) -3.1 (07:20) 3.2 11.39 (20:40) 6.67 (20:30) 0 0 0 0 0
02-12-2020 9.7 (15:40) -1.9 (23:10) 3.9 7.22 (12:00) 4.17 (13:10) 0.2 0.2 0 0 0
01-12-2020 11.6 (12:20) 2.4 (06:10) 7 4.17 (12:10) 2.22 (11:50) 0 0 0 0 0
30-11-2020 14.5 (13:50) 3.7 (00:00) 9.1 4.44 (18:50) 2.78 (19:00) 0 0 0 0 0
29-11-2020 15 (13:50) 5 (00:00) 10 8.33 (00:40) 3.61 (00:50) 0.8 0.8 0 0 0
28-11-2020 8.8 (17:50) 6.7 (00:00) 7.8 10 (15:00) 3.61 (05:50) 75 30.8 16 19.2 9
27-11-2020 9.8 (11:00) 7.4 (00:00) 8.6 10.83 (21:30) 3.61 (21:30) 66 10.8 13.2 15.6 26.4
26-11-2020 10.4 (13:00) 4.4 (00:00) 7.4 7.22 (13:40) 3.33 (13:40) 23.6 9.8 12.4 1.2 0.2
25-11-2020 12.3 (14:20) 3.9 (00:00) 8.1 6.39 (03:50) 3.61 (03:50) 0 0 0 0 0
24-11-2020 14.5 (14:30) 0.4 (00:00) 7.5 4.72 (23:40) 2.5 (15:30) 0 0 0 0 0
23-11-2020 14 (14:30) -0.1 (00:00) 6.9 5.83 (13:40) 3.33 (12:00) 0 0 0 0 0
22-11-2020 13 (14:20) -2.4 (-00:0) 5.3 3.61 (16:00) 2.22 (13:00) 0 0 0 0 0
21-11-2020 11.4 (13:10) -2.4 (-00:0) 4.5 4.44 (20:10) 2.5 (20:10) 0 0 0 0 0
20-11-2020 12.7 (15:40) -1 (-00:0) 5.8 6.39 (02:20) 3.89 (02:40) 0.2 0 0.2 0 0
19-11-2020 19 (13:50) 4.4 (00:00) 11.7 6.67 (12:00) 3.89 (12:00) 0 0 0 0 0
18-11-2020 15.6 (14:40) 4.9 (00:00) 10.3 5.28 (05:40) 3.33 (05:40) 0 0 0 0 0
17-11-2020 16.5 (14:50) 4.6 (00:00) 10.5 7.5 (02:50) 4.44 (02:50) 0 0 0 0 0
16-11-2020 14 (14:00) 8.4 (00:00) 11.2 8.89 (01:40) 5.28 (00:40) 0.2 0 0 0.2 0
15-11-2020 16.8 (14:10) 10 (00:00) 13.4 14.17 (13:00) 8.33 (13:00) 0 0 0 0 0
14-11-2020 16.7 (12:30) 5.3 (00:00) 11 6.39 (23:20) 3.61 (23:20) 0 0 0 0 0
13-11-2020 16.3 (15:20) 5.3 (00:00) 10.8 6.11 (14:10) 2.5 (13:30) 0 0 0 0 0
12-11-2020 16.5 (12:20) 6.6 (00:00) 11.5 13.06 (04:30) 7.5 (02:20) 0 0 0 0 0
11-11-2020 16.4 (14:40) 6.8 (00:00) 11.6 10 (13:40) 5 (13:40) 0.2 0.2 0 0 0
10-11-2020 15.2 (12:00) 4.5 (00:00) 9.8 4.17 (13:30) 2.5 (23:00) 1 0 0 0.8 0.2
09-11-2020 17.7 (15:10) 5 (00:00) 11.4 5.56 (15:00) 3.33 (00:10) 0 0 0 0 0
08-11-2020 18.1 (13:50) 7.6 (00:00) 12.9 11.11 (03:40) 5.56 (03:40) 0 0 0 0 0
07-11-2020 13.7 (11:40) 7.5 (00:00) 10.6 11.39 (12:40) 4.44 (12:30) 12.4 0 8.6 3.8 0
06-11-2020 13.4 (13:40) 10.1 (00:00) 11.8 5 (23:30) 1.39 (20:10) 0.6 0.6 0 0 0
05-11-2020 15.2 (14:00) 4.1 (00:00) 9.6 5.28 (11:20) 1.94 (08:00) 0 0 0 0 0

Gráficas

Temp. máximas Temp. mínimas Temp. medias Precipitaciones Rachas de viento máximas Velocidades máximas media en intervalos de 10 minutos

Datos horarios

Fecha y hora oficial Temperatura (ºC) Velocidad del viento (km/h) Dirección del viento Racha (km/h) Dirección de racha Precipitación (mm) Presión (hPa) Tendencia (hPa) Humedad (%)
2020-12-04 23:00:00 -2.1 3 Norte 5 Oeste 0 -- -- 88
2020-12-04 22:00:00 -1 0 Calma 5 Nordeste 0 -- -- 84
2020-12-04 21:00:00 1 3 Nordeste 15 Sur 0 -- -- 75
2020-12-04 20:00:00 1.9 3 Nordeste 33 Noroeste 0 -- -- 74
2020-12-04 19:00:00 2.6 12 Noroeste 30 Noroeste 0 -- -- 71
2020-12-04 18:00:00 2.5 15 Noroeste 27 Noroeste 0 -- -- 79
2020-12-04 17:00:00 3.8 8 Oeste 30 Noroeste 0 -- -- 69
2020-12-04 16:00:00 5.6 17 Noroeste 44 Norte 0 -- -- 60
2020-12-04 15:00:00 5.7 21 Noroeste 44 Noroeste 0 -- -- 63
2020-12-04 14:00:00 5.1 24 Noroeste 48 Norte 0 -- -- 68
2020-12-04 13:00:00 5.4 18 Oeste 34 Oeste 0 -- -- 72
2020-12-04 12:00:00 5.9 12 Oeste 27 Sudoeste 0 -- -- 72
2020-12-04 11:00:00 6 9 Oeste 38 Sudoeste 0 -- -- 70
2020-12-04 10:00:00 5.9 10 Sudoeste 26 Sudoeste 0 -- -- 69
2020-12-04 09:00:00 5.4 10 Oeste 35 Oeste 0 -- -- 67
2020-12-04 08:00:00 4.1 7 Oeste 33 Oeste 0 -- -- 69
2020-12-04 07:00:00 3.9 22 Noroeste 41 Oeste 0 -- -- 70
2020-12-04 06:00:00 3.8 21 Noroeste 46 Noroeste 0 -- -- 70
2020-12-04 05:00:00 3.9 22 Noroeste 44 Noroeste 0 -- -- 69
2020-12-04 04:00:00 4.1 25 Noroeste 44 Noroeste 0 -- -- 69
2020-12-04 03:00:00 4.5 19 Oeste 42 Oeste 0 -- -- 69
2020-12-04 02:00:00 5.2 17 Oeste 37 Sudoeste 0 -- -- 67
2020-12-04 01:00:00 5.2 12 Sudoeste 25 Oeste 0 -- -- 71
2020-12-04 00:00:00 4.7 9 Oeste 27 Oeste 0 -- -- 73
2020-12-03 23:00:00 5.6 12 Oeste 32 Sudoeste 0 -- -- 66
2020-12-03 22:00:00 5.4 14 Oeste 35 Sudoeste 0 -- -- 66
2020-12-03 21:00:00 3.8 15 Noroeste 41 Noroeste 0 -- -- 80
2020-12-03 20:00:00 4.3 21 Noroeste 37 Noroeste 0 -- -- 75
2020-12-03 19:00:00 4.7 19 Noroeste 33 Noroeste 0 -- -- 55
2020-12-03 18:00:00 3.8 17 Noroeste 33 Noroeste 0 -- -- 68
2020-12-03 17:00:00 4.8 8 Noroeste 22 Noroeste 0 -- -- 66
2020-12-03 16:00:00 7.4 10 Noroeste 20 Noroeste 0 -- -- 56
2020-12-03 15:00:00 9.3 7 Sur 13 Sur 0 -- -- 60
2020-12-03 14:00:00 8.9 7 Sur 14 Sur 0 -- -- 63
2020-12-03 13:00:00 9.3 6 Sur 10 Sur 0 -- -- 55
2020-12-03 12:00:00 6.5 5 Noroeste 15 Noroeste 0 -- -- 56
2020-12-03 11:00:00 4.6 8 Norte 14 Norte 0 -- -- 56
2020-12-03 10:00:00 -0.4 0 Calma 6 Norte 0 -- -- 83
2020-12-03 09:00:00 -1.5 0 Calma 9 Norte 0 -- -- 87
2020-12-03 08:00:00 -2.6 5 Norte 12 Nordeste 0 -- -- 91
2020-12-03 07:00:00 -3 2 Noroeste 4 Norte 0 -- -- 85
2020-12-03 06:00:00 -2.3 0 Calma 8 Noroeste 0 -- -- 82
2020-12-03 05:00:00 -1.3 3 Noroeste 6 Nordeste 0 -- -- 78
2020-12-03 04:00:00 0.2 3 Noroeste 17 Noroeste 0 -- -- 69
2020-12-03 03:00:00 0.9 4 Noroeste 26 Norte 0 -- -- 66
2020-12-03 02:00:00 2.1 19 Norte 26 Noroeste 0 -- -- 62
2020-12-03 01:00:00 0.2 7 Norte 14 Noroeste 0 -- -- 74
2020-12-03 00:00:00 -0.8 3 Norte 9 Norte 0 -- -- 81
2020-12-02 23:00:00 -1.7 4 Noroeste 6 Noroeste 0 -- -- 92
2020-12-02 22:00:00 -0.9 2 Sudoeste 7 Norte 0 -- -- 93
2020-12-02 21:00:00 -0.7 4 Norte 6 Noroeste 0 -- -- 93
2020-12-02 20:00:00 0.1 3 Noroeste 5 Norte 0 -- -- 92
2020-12-02 19:00:00 1.6 4 Nordeste 6 Nordeste 0 -- -- 87
2020-12-02 18:00:00 3.7 3 Nordeste 5 Nordeste 0 -- -- 78
2020-12-02 17:00:00 7.2 0 Calma 10 Este 0 -- -- 61
2020-12-02 16:00:00 9.6 2 Norte 13 Noroeste 0 -- -- 46
2020-12-02 15:00:00 9.3 6 Noroeste 19 Norte 0 -- -- 42
2020-12-02 14:00:00 7.9 12 Norte 26 Norte 0 -- -- 42
2020-12-02 13:00:00 6.8 13 Noroeste 23 Oeste 0 -- -- 45
2020-12-02 12:00:00 5.8 14 Norte 26 Noroeste 0 -- -- 50
2020-12-02 11:00:00 5.3 12 Noroeste 23 Norte 0 -- -- 49
2020-12-02 10:00:00 3.8 7 Norte 21 Noroeste 0 -- -- 57
2020-12-02 09:00:00 2.5 13 Norte 22 Norte 0 -- -- 59
2020-12-02 08:00:00 -0.1 5 Norte 13 Norte 0 -- -- 78
2020-12-02 07:00:00 0 3 Norte 11 Norte 0 -- -- 93
2020-12-02 06:00:00 1.1 6 Norte 12 Norte 0 -- -- 95
2020-12-02 05:00:00 1.8 5 Norte 13 Norte 0 -- -- 98
2020-12-02 04:00:00 2.2 3 Norte 9 Norte 0 -- -- 96
2020-12-02 03:00:00 3.6 5 Este 12 Noroeste 0 -- -- 95
2020-12-02 02:00:00 4.3 6 Norte 12 Norte 0.2 -- -- 95
2020-12-02 01:00:00 4.8 4 Nordeste 8 Noroeste 0 -- -- 93
2020-12-02 00:00:00 4.6 3 Norte 6 Norte 0 -- -- 93
2020-12-01 23:00:00 5.2 3 Noroeste 6 Norte 0 -- -- 94
2020-12-01 22:00:00 5.3 2 Noroeste 6 Este 0 -- -- 92
2020-12-01 21:00:00 5.9 2 Sudeste 7 Este 0 -- -- 89
2020-12-01 20:00:00 6.4 0 Calma 9 Sudeste 0 -- -- 89
2020-12-01 19:00:00 7.1 3 Sur 9 Sur 0 -- -- 95
2020-12-01 18:00:00 7.6 0 Calma 6 Este 0 -- -- 93
2020-12-01 17:00:00 8.3 3 Norte 7 Nordeste 0 -- -- 80
2020-12-01 16:00:00 9.3 4 Nordeste 8 Nordeste 0 -- -- 75
2020-12-01 15:00:00 10.3 2 Oeste 9 Sudoeste 0 -- -- 75
2020-12-01 14:00:00 10.9 3 Sur 9 Sur 0 -- -- 68
2020-12-01 13:00:00 11 6 Sur 15 Sur 0 -- -- 65
2020-12-01 12:00:00 10.7 7 Sur 13 Sur 0 -- -- 70
2020-12-01 11:00:00 8.4 5 Sur 12 Sudeste 0 -- -- 100
2020-12-01 10:00:00 5.6 0 Calma 3 Noroeste 0 -- -- 100
2020-12-01 09:00:00 3.4 0 Calma 4 Noroeste 0 -- -- 100
2020-12-01 08:00:00 2.6 2 Norte 4 Noroeste 0 -- -- 100
2020-12-01 07:00:00 2.6 2 Nordeste 4 Nordeste 0 -- -- 99
2020-12-01 06:00:00 2.5 0 Calma 5 Sudoeste 0 -- -- 99
2020-12-01 05:00:00 2.8 0 Calma 4 Nordeste 0 -- -- 99
2020-12-01 04:00:00 2.7 2 Noroeste 4 Noroeste 0 -- -- 99
2020-12-01 03:00:00 2.9 0 Calma 3 Noroeste 0 -- -- 98
2020-12-01 02:00:00 3.3 0 Calma 4 Norte 0 -- -- 98
2020-12-01 01:00:00 3.2 3 Noroeste 5 Noroeste 0 -- -- 98
2020-12-01 00:00:00 3.8 2 Norte 4 Noroeste 0 -- -- 97
2020-11-30 23:00:00 4.3 2 Noroeste 4 Noroeste 0 -- -- 95
2020-11-30 22:00:00 5.3 2 Oeste 7 Norte 0 -- -- 93
2020-11-30 21:00:00 7.1 5 Norte 15 Norte 0 -- -- 89
2020-11-30 20:00:00 7.8 7 Norte 14 Norte 0 -- -- 89
2020-11-30 19:00:00 8.6 10 Norte 16 Norte 0 -- -- 84
2020-11-30 18:00:00 9 7 Norte 14 Noroeste 0 -- -- 84
2020-11-30 17:00:00 11.1 6 Noroeste 13 Norte 0 -- -- 76
2020-11-30 16:00:00 13.4 5 Sur 12 Sur 0 -- -- 78
2020-11-30 15:00:00 13.7 8 Sur 12 Sur 0 -- -- 75
2020-11-30 14:00:00 14.3 6 Sur 12 Sur 0 -- -- 71
2020-11-30 13:00:00 14.1 5 Sur 12 Sur 0 -- -- 70
2020-11-30 12:00:00 13.6 8 Sur 10 Sur 0 -- -- 70
2020-11-30 11:00:00 11.1 5 Noroeste 15 Noroeste 0 -- -- 79
2020-11-30 10:00:00 7.6 5 Norte 13 Noroeste 0 -- -- 96
2020-11-30 09:00:00 4.1 0 Calma 4 Noroeste 0 -- -- 98
2020-11-30 08:00:00 4 0 Calma 3 Sur 0 -- -- 97
2020-11-30 07:00:00 4.1 0 Calma 2 Sudoeste 0 -- -- 96
2020-11-30 06:00:00 4.5 2 Noroeste 5 Sudoeste 0 -- -- 95
2020-11-30 05:00:00 5.4 0 Calma 5 Norte 0 -- -- 94
2020-11-30 04:00:00 6 4 Norte 12 Norte 0 -- -- 91
2020-11-30 03:00:00 7.9 7 Norte 14 Nordeste 0 -- -- 84
2020-11-30 02:00:00 8.3 9 Norte 15 Norte 0 -- -- 83
2020-11-30 01:00:00 8.2 9 Norte 14 Norte 0 -- -- 85
2020-11-30 00:00:00 7.6 7 Norte 11 Norte 0 -- -- 86
2020-11-29 23:00:00 6.9 6 Norte 11 Norte 0 -- -- 90
2020-11-29 22:00:00 7.1 5 Norte 14 Norte 0 -- -- 89
2020-11-29 21:00:00 8.5 9 Norte 15 Nordeste 0 -- -- 83
2020-11-29 20:00:00 7.7 9 Norte 15 Norte 0 -- -- 87
2020-11-29 19:00:00 6.5 0 Calma 3 Noroeste 0 -- -- 90
2020-11-29 18:00:00 8.4 2 Noroeste 4 Noroeste 0 -- -- 84
2020-11-29 17:00:00 11.8 0 Calma 13 Sur 0 -- -- 70
2020-11-29 16:00:00 13.8 9 Sur 14 Sur 0 -- -- 57
2020-11-29 15:00:00 14.9 6 Sur 14 Sudeste 0 -- -- 55
2020-11-29 14:00:00 14.8 8 Sur 14 Sur 0 -- -- 53
2020-11-29 13:00:00 14.1 6 Sudoeste 12 Sur 0 -- -- 56
2020-11-29 12:00:00 12.8 5 Sudoeste 10 Sur 0 -- -- 57
2020-11-29 11:00:00 9.6 3 Norte 10 Noroeste 0 -- -- 73
2020-11-29 10:00:00 6.3 5 Norte 10 Norte 0 -- -- 96
2020-11-29 09:00:00 5 3 Norte 5 Norte 0 -- -- 95
2020-11-29 08:00:00 6 0 Calma 6 Norte 0 -- -- 93
2020-11-29 07:00:00 6.8 3 Noroeste 19 Norte 0 -- -- 92
2020-11-29 06:00:00 7.8 5 Norte 18 Noroeste 0 -- -- 92
2020-11-29 05:00:00 7.9 8 Norte 18 Nordeste 0 -- -- 96
2020-11-29 04:00:00 8 8 Norte 20 Nordeste 0 -- -- 97
2020-11-29 03:00:00 7.9 5 Nordeste 17 Nordeste 0 -- -- 99
2020-11-29 02:00:00 8.1 7 Nordeste 23 Nordeste 0 -- -- 100
2020-11-29 01:00:00 8.2 13 Nordeste 30 Este 0.8 -- -- 100
2020-11-29 00:00:00 8.4 10 Nordeste 29 Nordeste 0.8 -- -- 100
2020-11-28 23:00:00 8.5 13 Nordeste 30 Norte 1.8 -- -- 100
2020-11-28 22:00:00 8.5 8 Norte 34 Nordeste 1.8 -- -- 100
2020-11-28 21:00:00 8.6 9 Norte 29 Nordeste 0.8 -- -- 100
2020-11-28 20:00:00 8.7 7 Norte 29 Norte 1.4 -- -- 100
2020-11-28 19:00:00 8.5 10 Norte 33 Norte 2.4 -- -- 100
2020-11-28 18:00:00 8.8 6 Oeste 25 Sur 1 -- -- 99
2020-11-28 17:00:00 8.6 8 Nordeste 27 Nordeste 7.2 -- -- 99
2020-11-28 16:00:00 8.5 6 Nordeste 27 Nordeste 4.4 -- -- 99
2020-11-28 15:00:00 8.5 9 Nordeste 36 Nordeste 1.8 -- -- 99
2020-11-28 14:00:00 8.6 6 Norte 20 Norte 0.2 -- -- 99
2020-11-28 13:00:00 7.2 9 Norte 22 Nordeste 4.6 -- -- 99
2020-11-28 12:00:00 7.2 7 Noroeste 13 Noroeste 2.8 -- -- 99
2020-11-28 11:00:00 7.2 3 Noroeste 22 Nordeste 5.8 -- -- 99
2020-11-28 10:00:00 7.2 7 Norte 18 Norte 1.6 -- -- 99
2020-11-28 09:00:00 6.9 4 Nordeste 17 Nordeste 1.4 -- -- 98
2020-11-28 08:00:00 6.7 6 Norte 27 Nordeste 1 -- -- 98
2020-11-28 07:00:00 7.2 11 Nordeste 27 Norte 3.4 -- -- 99
2020-11-28 06:00:00 7.3 8 Norte 27 Nordeste 1.4 -- -- 99
2020-11-28 05:00:00 7.3 12 Norte 30 Nordeste 1.2 -- -- 99
2020-11-28 04:00:00 7.1 6 Norte 11 Norte 5 -- -- 99
2020-11-28 03:00:00 7.1 3 Norte 17 Oeste 6.2 -- -- 99
2020-11-28 02:00:00 7.1 6 Sudoeste 17 Oeste 8 -- -- 99
2020-11-28 01:00:00 7.3 6 Norte 11 Norte 9 -- -- 99
2020-11-28 00:00:00 7.9 3 Sudeste 18 Nordeste 5.2 -- -- 99
2020-11-27 23:00:00 8.1 4 Sudeste 22 Sur 5.2 -- -- 99
2020-11-27 22:00:00 7.5 5 Sudeste 39 Sur 11 -- -- 98
2020-11-27 21:00:00 9.5 8 Noroeste 25 Este 1.4 -- -- 99
2020-11-27 20:00:00 9.1 7 Sudoeste 19 Nordeste 3.6 -- -- 98
2020-11-27 19:00:00 9.3 5 Oeste 22 Sudeste 0 -- -- 98
2020-11-27 18:00:00 9.2 5 Noroeste 23 Nordeste 0 -- -- 98
2020-11-27 17:00:00 9.2 6 Oeste 19 Este 0 -- -- 97
2020-11-27 16:00:00 9.4 5 Sudoeste 18 Sudeste 0 -- -- 97
2020-11-27 15:00:00 9.7 4 Noroeste 16 Sudeste 0 -- -- 97
2020-11-27 14:00:00 9.6 4 Noroeste 12 Norte 1.4 -- -- 98
2020-11-27 13:00:00 9.1 2 Sur 14 Nordeste 14.2 -- -- 98
2020-11-27 12:00:00 9.7 4 Norte 10 Norte 1.4 -- -- 98
2020-11-27 11:00:00 9.8 3 Norte 14 Este 0 -- -- 100
2020-11-27 10:00:00 9.4 5 Sudoeste 13 Sur 1 -- -- 100
2020-11-27 09:00:00 9.3 3 Oeste 13 Norte 1.6 -- -- 100
2020-11-27 08:00:00 9.4 4 Norte 11 Sudoeste 2.2 -- -- 100
2020-11-27 07:00:00 9.5 3 Oeste 12 Este 7 -- -- 100
2020-11-27 06:00:00 9.3 4 Noroeste 8 Norte 2 -- -- 100
2020-11-27 05:00:00 9.4 3 Oeste 9 Sur 7.6 -- -- 100
2020-11-27 04:00:00 9.1 0 Calma 4 Noroeste 1.2 -- -- 100
2020-11-27 03:00:00 9.3 0 Calma 4 Nordeste 0 -- -- 100
2020-11-27 02:00:00 9.5 0 Calma 10 Sudeste 0 -- -- 100
2020-11-27 01:00:00 9.6 3 Este 10 Sur 0 -- -- 99
2020-11-27 00:00:00 9.7 4 Sudeste 12 Sudeste 0 -- -- 99
2020-11-26 23:00:00 9.9 3 Sudeste 12 Este 0.2 -- -- 99
2020-11-26 22:00:00 9.8 3 Sudeste 7 Sudeste 0 -- -- 99
2020-11-26 21:00:00 9.5 3 Sudeste 14 Sur 0 -- -- 99
2020-11-26 20:00:00 9.8 4 Sudeste 12 Sur 0 -- -- 99
2020-11-26 19:00:00 10.1 3 Sudeste 9 Sudeste 0 -- -- 98
2020-11-26 18:00:00 9.8 2 Sudeste 12 Sur 0 -- -- 98
2020-11-26 17:00:00 10.1 4 Sudeste 13 Sur 0 -- -- 97
2020-11-26 16:00:00 10.3 5 Sudeste 21 Sur 0 -- -- 98
2020-11-26 15:00:00 10.3 7 Sudeste 23 Sur 0.6 -- -- 99
2020-11-26 14:00:00 10.3 12 Sur 26 Sur 0.4 -- -- 99
2020-11-26 13:00:00 10.4 10 Sur 22 Sudeste 0.2 -- -- 99
2020-11-26 12:00:00 9.8 6 Sur 18 Sur 1.4 -- -- 99
2020-11-26 11:00:00 9.5 8 Sudeste 20 Sur 2.4 -- -- 99
2020-11-26 10:00:00 9.2 3 Este 13 Sudeste 3 -- -- 99
2020-11-26 09:00:00 9.2 3 Este 12 Sudeste 2 -- -- 99
2020-11-26 08:00:00 9.2 0 Calma 12 Sur 1.8 -- -- 99
2020-11-26 07:00:00 9.1 2 Sudeste 15 Sudeste 1.8 -- -- 99
2020-11-26 06:00:00 9.2 5 Sudeste 15 Sur 2.6 -- -- 99
2020-11-26 05:00:00 8.9 3 Sudeste 11 Este 3 -- -- 99
2020-11-26 04:00:00 8.6 4 Sudeste 13 Sur 1.8 -- -- 99
2020-11-26 03:00:00 6.5 2 Noroeste 4 Este 0.2 -- -- 99
2020-11-26 02:00:00 6 0 Calma 4 Noroeste 0.6 -- -- 99
2020-11-26 01:00:00 5.5 3 Noroeste 8 Sur 1.6 -- -- 99
2020-11-26 00:00:00 4.6 2 Norte 4 Sudeste 0 -- -- 98
2020-11-25 23:00:00 3.9 3 Norte 5 Noroeste 0 -- -- 96
2020-11-25 22:00:00 4.8 0 Calma 8 Noroeste 0 -- -- 95
2020-11-25 21:00:00 6.4 2 Sur 5 Nordeste 0 -- -- 93
2020-11-25 20:00:00 8.1 3 Sur 12 Sur 0 -- -- 92
2020-11-25 19:00:00 9.1 4 Sudoeste 10 Sur 0 -- -- 90
2020-11-25 18:00:00 9.1 3 Sudeste 9 Sur 0 -- -- 86
2020-11-25 17:00:00 9.9 4 Sur 14 Sudeste 0 -- -- 84
2020-11-25 16:00:00 10 7 Sur 19 Sur 0 -- -- 86
2020-11-25 15:00:00 11.7 9 Sur 18 Sur 0 -- -- 79
2020-11-25 14:00:00 11.1 5 Sudeste 9 Sur 0 -- -- 78
2020-11-25 13:00:00 10.7 5 Sudeste 12 Sudoeste 0 -- -- 84
2020-11-25 12:00:00 9.7 9 Sudoeste 18 Sur 0 -- -- 83
2020-11-25 11:00:00 8.5 4 Norte 11 Noroeste 0 -- -- 92
2020-11-25 10:00:00 8 4 Norte 9 Norte 0 -- -- 91
2020-11-25 09:00:00 7.2 5 Noroeste 11 Noroeste 0 -- -- 93
2020-11-25 08:00:00 6.3 6 Noroeste 14 Norte 0 -- -- 95
2020-11-25 07:00:00 6.1 7 Oeste 18 Noroeste 0 -- -- 94
2020-11-25 06:00:00 6.1 11 Noroeste 21 Oeste 0 -- -- 94
2020-11-25 05:00:00 5.7 11 Noroeste 17 Noroeste 0 -- -- 95
2020-11-25 04:00:00 6.2 11 Noroeste 23 Oeste 0 -- -- 93
2020-11-25 03:00:00 4.7 8 Noroeste 13 Noroeste 0 -- -- 94
2020-11-25 02:00:00 5 9 Noroeste 15 Oeste 0 -- -- 95
2020-11-25 01:00:00 4 3 Noroeste 9 Norte 0 -- -- 92
2020-11-25 00:00:00 4.9 5 Oeste 17 Oeste 0 -- -- 94
2020-11-24 23:00:00 4.1 3 Noroeste 11 Norte 0 -- -- 90
2020-11-24 22:00:00 5.1 8 Noroeste 14 Oeste 0 -- -- 90
2020-11-24 21:00:00 5.8 6 Noroeste 14 Noroeste 0 -- -- 85
2020-11-24 20:00:00 5.4 5 Oeste 9 Oeste 0 -- -- 84
2020-11-24 19:00:00 7.5 3 Sudoeste 9 Sudoeste 0 -- -- 77
2020-11-24 18:00:00 7.9 2 Noroeste 9 Norte 0 -- -- 79
2020-11-24 17:00:00 10.2 5 Noroeste 13 Noroeste 0 -- -- 69
2020-11-24 16:00:00 11.9 9 Noroeste 16 Noroeste 0 -- -- 62
2020-11-24 15:00:00 14 2 Sudeste 9 Sudeste 0 -- -- 56
2020-11-24 14:00:00 14 5 Sur 12 Sur 0 -- -- 48
2020-11-24 13:00:00 14.1 6 Sur 12 Sur 0 -- -- 48
2020-11-24 12:00:00 13.2 6 Sur 11 Sur 0 -- -- 46
2020-11-24 11:00:00 11.1 2 Sudeste 7 Sur 0 -- -- 49
2020-11-24 10:00:00 5.1 0 Calma 4 Sur 0 -- -- 64
2020-11-24 09:00:00 2.6 0 Calma 5 Sur 0 -- -- 61
2020-11-24 08:00:00 1.1 0 Calma 3 Sudoeste 0 -- -- 62
2020-11-24 07:00:00 0.7 0 Calma 8 Norte 0 -- -- 59
2020-11-24 06:00:00 0.9 4 Oeste 7 Nordeste 0 -- -- 68
2020-11-24 05:00:00 1 0 Calma 5 Noroeste 0 -- -- 73
2020-11-24 04:00:00 0.8 3 Noroeste 6 Noroeste 0 -- -- 83
2020-11-24 03:00:00 1.2 0 Calma 5 Noroeste 0 -- -- 86
2020-11-24 02:00:00 1.8 3 Noroeste 8 Norte 0 -- -- 87
2020-11-24 01:00:00 2.5 5 Norte 8 Noroeste 0 -- -- 84
2020-11-24 00:00:00 3.5 3 Noroeste 9 Norte 0 -- -- 80
2020-11-23 23:00:00 4.9 5 Norte 11 Norte 0 -- -- 73
2020-11-23 22:00:00 5.3 6 Norte 13 Nordeste 0 -- -- 69
2020-11-23 21:00:00 5.4 6 Norte 13 Norte 0 -- -- 68
2020-11-23 20:00:00 6.4 8 Norte 16 Norte 0 -- -- 65
2020-11-23 19:00:00 4 5 Norte 8 Noroeste 0 -- -- 82
2020-11-23 18:00:00 6.8 0 Calma 4 Sudoeste 0 -- -- 73
2020-11-23 17:00:00 10.1 4 Sur 13 Sur 0 -- -- 69
2020-11-23 16:00:00 12 9 Sur 13 Sur 0 -- -- 57
2020-11-23 15:00:00 14 4 Sudeste 15 Noroeste 0 -- -- 52
2020-11-23 14:00:00 13 10 Noroeste 21 Noroeste 0 -- -- 34
2020-11-23 13:00:00 12.8 10 Noroeste 18 Noroeste 0 -- -- 32
2020-11-23 12:00:00 11.3 12 Noroeste 19 Noroeste 0 -- -- 39
2020-11-23 11:00:00 9.2 10 Norte 15 Norte 0 -- -- 52
2020-11-23 10:00:00 5.9 7 Norte 15 Norte 0 -- -- 85
2020-11-23 09:00:00 3.1 7 Norte 15 Norte 0 -- -- 100
2020-11-23 08:00:00 0.6 4 Noroeste 8 Norte 0 -- -- 99
2020-11-23 07:00:00 0.1 3 Norte 5 Norte 0 -- -- 97
2020-11-23 06:00:00 0.7 3 Norte 7 Noroeste 0 -- -- 98
2020-11-23 05:00:00 0.9 4 Noroeste 9 Norte 0 -- -- 97
2020-11-23 04:00:00 0.4 3 Noroeste 6 Norte 0 -- -- 96
2020-11-23 03:00:00 0.1 4 Noroeste 5 Noroeste 0 -- -- 95
2020-11-23 02:00:00 0.1 3 Noroeste 6 Noroeste 0 -- -- 97
2020-11-23 01:00:00 0.1 3 Noroeste 5 Noroeste 0 -- -- 96
2020-11-23 00:00:00 0.3 3 Norte 4 Norte 0 -- -- 95
2020-11-22 23:00:00 0.6 0 Calma 4 Noroeste 0 -- -- 93
2020-11-22 22:00:00 1.4 0 Calma 3 Sur 0 -- -- 88
2020-11-22 21:00:00 2.2 0 Calma 4 Sur 0 -- -- 85
2020-11-22 20:00:00 3.4 2 Sur 6 Nordeste 0 -- -- 80
2020-11-22 19:00:00 3.9 4 Norte 9 Norte 0 -- -- 80
2020-11-22 18:00:00 5.4 3 Norte 7 Sur 0 -- -- 81
2020-11-22 17:00:00 8.8 6 Sur 11 Sudoeste 0 -- -- 74
2020-11-22 16:00:00 11.1 8 Sur 13 Sur 0 -- -- 57
2020-11-22 15:00:00 12 6 Sur 12 Sur 0 -- -- 54
2020-11-22 14:00:00 12.8 4 Sur 12 Sur 0 -- -- 54
2020-11-22 13:00:00 11.5 8 Sur 13 Sur 0 -- -- 54
2020-11-22 12:00:00 10.4 7 Sur 11 Sur 0 -- -- 58
2020-11-22 11:00:00 8.1 4 Sur 9 Sur 0 -- -- 59
2020-11-22 10:00:00 1.8 4 Sur 5 Sudeste 0 -- -- 78
2020-11-22 09:00:00 -1.3 0 Calma 4 Norte 0 -- -- 80
2020-11-22 08:00:00 -2.4 0 Calma 4 Norte 0 -- -- 87
2020-11-22 07:00:00 -2 0 Calma 4 Noroeste 0 -- -- 92
2020-11-22 06:00:00 -1.9 3 Norte 5 Norte 0 -- -- 97
2020-11-22 05:00:00 -1.7 0 Calma 6 Noroeste 0 -- -- 97
2020-11-22 04:00:00 -1.2 2 Norte 5 Noroeste 0 -- -- 96
2020-11-22 03:00:00 -2.1 0 Calma 5 Norte 0 -- -- 92
2020-11-22 02:00:00 -1.2 3 Norte 5 Norte 0 -- -- 92
2020-11-22 01:00:00 -0.7 0 Calma 4 Norte 0 -- -- 89
2020-11-22 00:00:00 -0.5 2 Noroeste 5 Norte 0 -- -- 89
2020-11-21 23:00:00 0.3 3 Norte 5 Noroeste 0 -- -- 85
2020-11-21 22:00:00 1 3 Noroeste 7 Norte 0 -- -- 82
2020-11-21 21:00:00 1.6 3 Norte 16 Norte 0 -- -- 78
2020-11-21 20:00:00 1.4 8 Norte 14 Norte 0 -- -- 74
2020-11-21 19:00:00 1.2 3 Norte 6 Nordeste 0 -- -- 72
2020-11-21 18:00:00 4.1 0 Calma 4 Norte 0 -- -- 63
2020-11-21 17:00:00 8.4 3 Sudoeste 6 Este 0 -- -- 47
2020-11-21 16:00:00 10.5 3 Este 9 Este 0 -- -- 42
2020-11-21 15:00:00 10.9 3 Sudeste 9 Este 0 -- -- 37
2020-11-21 14:00:00 10.9 4 Este 13 Este 0 -- -- 39
2020-11-21 13:00:00 11 3 Nordeste 10 Sur 0 -- -- 37
2020-11-21 12:00:00 9.1 4 Sudeste 12 Este 0 -- -- 40
2020-11-21 11:00:00 7.3 3 Este 9 Sudeste 0 -- -- 50
2020-11-21 10:00:00 2.9 3 Sur 5 Sur 0 -- -- 66
2020-11-21 09:00:00 -1.2 3 Sur 4 Sur 0 -- -- 79
2020-11-21 08:00:00 -2.4 0 Calma 5 Noroeste 0 -- -- 83
2020-11-21 07:00:00 -2.1 0 Calma 5 Noroeste 0 -- -- 85
2020-11-21 06:00:00 -1.5 0 Calma 4 Nordeste 0 -- -- 80
2020-11-21 05:00:00 -1.6 0 Calma 4 Norte 0 -- -- 78
2020-11-21 04:00:00 -1.6 2 Norte 5 Norte 0 -- -- 77
2020-11-21 03:00:00 -1.6 0 Calma 5 Noroeste 0 -- -- 77
2020-11-21 02:00:00 -1.3 2 Noroeste 4 Noroeste 0 -- -- 82
2020-11-21 01:00:00 -1 3 Noroeste 4 Noroeste 0 -- -- 86
2020-11-21 00:00:00 -0.7 2 Oeste 8 Noroeste 0 -- -- 91
2020-11-20 23:00:00 -0.2 2 Noroeste 5 Norte 0 -- -- 93
2020-11-20 22:00:00 0.6 3 Noroeste 5 Norte 0 -- -- 89
2020-11-20 21:00:00 0.7 4 Norte 6 Nordeste 0 -- -- 86
2020-11-20 20:00:00 2 0 Calma 5 Nordeste 0 -- -- 76
2020-11-20 19:00:00 3.2 3 Noroeste 5 Noroeste 0 -- -- 69
2020-11-20 18:00:00 6.1 3 Norte 8 Noroeste 0 -- -- 57
2020-11-20 17:00:00 10.6 6 Noroeste 12 Noroeste 0 -- -- 35
2020-11-20 16:00:00 12.6 5 Noroeste 13 Noroeste 0 -- -- 28
2020-11-20 15:00:00 11.2 5 Norte 12 Norte 0 -- -- 51
2020-11-20 14:00:00 9.9 4 Oeste 14 Sur 0 -- -- 70
2020-11-20 13:00:00 9.8 4 Sur 10 Sur 0 -- -- 77
2020-11-20 12:00:00 9.4 4 Norte 11 Noroeste 0 -- -- 65
2020-11-20 11:00:00 8 3 Norte 5 Noroeste 0 -- -- 96
2020-11-20 10:00:00 6.2 3 Nordeste 7 Norte 0 -- -- 99
2020-11-20 09:00:00 4.9 0 Calma 6 Sur 0 -- -- 98
2020-11-20 08:00:00 3.6 2 Noroeste 4 Nordeste 0 -- -- 98
2020-11-20 07:00:00 3.4 2 Noroeste 10 Norte 0.2 -- -- 96
2020-11-20 06:00:00 3.7 5 Noroeste 13 Norte 0 -- -- 95
2020-11-20 05:00:00 5.2 5 Noroeste 20 Norte 0 -- -- 94
2020-11-20 04:00:00 6.6 12 Norte 22 Noroeste 0 -- -- 95
2020-11-20 03:00:00 7.5 10 Noroeste 23 Noroeste 0 -- -- 94
2020-11-20 02:00:00 7.7 9 Noroeste 16 Noroeste 0 -- -- 99
2020-11-20 01:00:00 7.3 7 Norte 13 Norte 0 -- -- 98
2020-11-20 00:00:00 5.7 3 Noroeste 5 Norte 0 -- -- 97
2020-11-19 23:00:00 6.1 3 Noroeste 4 Noroeste 0 -- -- 96
2020-11-19 22:00:00 6.9 2 Nordeste 4 Nordeste 0 -- -- 96
2020-11-19 21:00:00 7.8 2 Sudoeste 6 Noroeste 0 -- -- 94
2020-11-19 20:00:00 8.8 0 Calma 4 Oeste 0 -- -- 91
2020-11-19 19:00:00 10.6 2 Sudeste 10 Nordeste 0 -- -- 87
2020-11-19 18:00:00 12.4 2 Sur 4 Norte 0 -- -- 78
2020-11-19 17:00:00 15.4 3 Este 6 Este 0 -- -- 68
2020-11-19 16:00:00 17.8 2 Este 13 Sur 0 -- -- 63
2020-11-19 15:00:00 18.5 4 Nordeste 11 Este 0 -- -- 61
2020-11-19 14:00:00 18.7 4 Este 17 Noroeste 0 -- -- 57
2020-11-19 13:00:00 16.9 12 Norte 24 Norte 0 -- -- 50
2020-11-19 12:00:00 15.9 14 Norte 24 Noroeste 0 -- -- 51
2020-11-19 11:00:00 14.1 9 Norte 17 Norte 0 -- -- 62
2020-11-19 10:00:00 9.4 0 Calma 6 Sur 0 -- -- 91
2020-11-19 09:00:00 5.8 3 Noroeste 6 Noroeste 0 -- -- 98
2020-11-19 08:00:00 4.7 2 Norte 5 Norte 0 -- -- 96
2020-11-19 07:00:00 4.5 3 Norte 5 Noroeste 0 -- -- 95
2020-11-19 06:00:00 5.1 0 Calma 4 Norte 0 -- -- 95
2020-11-19 05:00:00 5.6 0 Calma 5 Sudeste 0 -- -- 94
2020-11-19 04:00:00 5.9 2 Sur 5 Sudoeste 0 -- -- 95
2020-11-19 03:00:00 5.4 2 Sudoeste 4 Noroeste 0 -- -- 98
2020-11-19 02:00:00 5.4 0 Calma 4 Noroeste 0 -- -- 98
2020-11-19 01:00:00 5.2 2 Noroeste 5 Noroeste 0 -- -- 98
2020-11-19 00:00:00 5.3 3 Noroeste 5 Noroeste 0 -- -- 97
2020-11-18 23:00:00 5.9 0 Calma 5 Noroeste 0 -- -- 98
2020-11-18 22:00:00 5.9 3 Noroeste 5 Norte 0 -- -- 97
2020-11-18 21:00:00 6.4 0 Calma 4 Noroeste 0 -- -- 96
2020-11-18 20:00:00 6.9 0 Calma 5 Norte 0 -- -- 94
2020-11-18 19:00:00 8.3 3 Noroeste 4 Noroeste 0 -- -- 90
2020-11-18 18:00:00 10.3 0 Calma 5 Sur 0 -- -- 85
2020-11-18 17:00:00 13.2 4 Sur 10 Sur 0 -- -- 79
2020-11-18 16:00:00 14 8 Sur 11 Sur 0 -- -- 75
2020-11-18 15:00:00 15.1 9 Sur 15 Sur 0 -- -- 74
2020-11-18 14:00:00 15 8 Sur 14 Sur 0 -- -- 74
2020-11-18 13:00:00 15 8 Sur 13 Sur 0 -- -- 75
2020-11-18 12:00:00 14.6 6 Sur 12 Sur 0 -- -- 73
2020-11-18 11:00:00 12.9 2 Nordeste 5 Este 0 -- -- 75
2020-11-18 10:00:00 8.9 3 Nordeste 8 Este 0 -- -- 87
2020-11-18 09:00:00 6.4 0 Calma 4 Sudeste 0 -- -- 95
2020-11-18 08:00:00 6.3 2 Sudoeste 11 Norte 0 -- -- 91
2020-11-18 07:00:00 8 5 Norte 18 Norte 0 -- -- 88
2020-11-18 06:00:00 8.7 10 Noroeste 19 Noroeste 0 -- -- 86
2020-11-18 05:00:00 5.9 3 Noroeste 7 Noroeste 0 -- -- 94
2020-11-18 04:00:00 5.5 0 Calma 6 Noroeste 0 -- -- 95
2020-11-18 03:00:00 5.7 3 Noroeste 8 Noroeste 0 -- -- 96
2020-11-18 02:00:00 4.9 0 Calma 4 Nordeste 0 -- -- 96
2020-11-18 01:00:00 5.6 2 Norte 4 Sur 0 -- -- 94
2020-11-18 00:00:00 6.1 0 Calma 6 Norte 0 -- -- 94
2020-11-17 23:00:00 6.8 0 Calma 8 Norte 0 -- -- 95
2020-11-17 22:00:00 6.6 4 Norte 8 Norte 0 -- -- 97
2020-11-17 21:00:00 5.7 4 Noroeste 7 Norte 0 -- -- 94
2020-11-17 20:00:00 7 2 Norte 4 Norte 0 -- -- 92
2020-11-17 19:00:00 8.9 0 Calma 4 Sur 0 -- -- 85
2020-11-17 18:00:00 11.1 2 Sudoeste 9 Sudeste 0 -- -- 79
2020-11-17 17:00:00 14.1 4 Noroeste 17 Noroeste 0 -- -- 68
2020-11-17 16:00:00 16.3 3 Sur 8 Sur 0 -- -- 54
2020-11-17 15:00:00 16.5 3 Este 12 Sur 0 -- -- 53
2020-11-17 14:00:00 15.8 8 Sur 14 Sur 0 -- -- 52
2020-11-17 13:00:00 15.6 5 Este 12 Sudeste 0 -- -- 55
2020-11-17 12:00:00 14.5 4 Sudeste 12 Este 0 -- -- 57
2020-11-17 11:00:00 11.9 4 Este 13 Sudeste 0 -- -- 67
2020-11-17 10:00:00 8.4 0 Calma 3 Norte 0 -- -- 99
2020-11-17 09:00:00 5.9 0 Calma 5 Norte 0 -- -- 100
2020-11-17 08:00:00 4.8 2 Noroeste 3 Noroeste 0 -- -- 98
2020-11-17 07:00:00 4.6 2 Norte 5 Noroeste 0 -- -- 97
2020-11-17 06:00:00 5.3 3 Noroeste 5 Noroeste 0 -- -- 95
2020-11-17 05:00:00 6.6 2 Sudoeste 6 Oeste 0 -- -- 94
2020-11-17 04:00:00 7.8 3 Noroeste 22 Norte 0 -- -- 91
2020-11-17 03:00:00 8.5 13 Norte 27 Noroeste 0 -- -- 91
2020-11-17 02:00:00 8.9 8 Noroeste 23 Norte 0 -- -- 91
2020-11-17 01:00:00 8.7 12 Noroeste 23 Noroeste 0 -- -- 92
2020-11-17 00:00:00 8.9 8 Noroeste 14 Oeste 0 -- -- 93
2020-11-16 23:00:00 8.7 0 Calma 5 Sur 0 -- -- 94
2020-11-16 22:00:00 8.5 4 Sur 8 Sur 0 -- -- 95
2020-11-16 21:00:00 8.9 2 Noroeste 6 Sur 0 -- -- 92
2020-11-16 20:00:00 9.5 3 Sur 6 Sur 0 -- -- 93
2020-11-16 19:00:00 9.5 4 Sur 8 Sur 0 -- -- 94
2020-11-16 18:00:00 9.9 3 Este 11 Sur 0 -- -- 93
2020-11-16 17:00:00 10.7 5 Sur 9 Sur 0 -- -- 93
2020-11-16 16:00:00 11.1 0 Calma 6 Nordeste 0 -- -- 91
2020-11-16 15:00:00 11.8 4 Este 22 Oeste 0 -- -- 89
2020-11-16 14:00:00 14 14 Oeste 30 Oeste 0 -- -- 78
2020-11-16 13:00:00 11.8 12 Noroeste 26 Oeste 0.2 -- -- 94
2020-11-16 12:00:00 11.5 2 Sudeste 12 Sur 0 -- -- 90
2020-11-16 11:00:00 12 0 Calma 7 Norte 0 -- -- 87
2020-11-16 10:00:00 11.5 4 Sur 8 Sur 0 -- -- 88
2020-11-16 09:00:00 11.5 6 Sur 8 Sur 0 -- -- 85
2020-11-16 08:00:00 11.2 3 Sur 15 Sur 0 -- -- 86
2020-11-16 07:00:00 11.3 9 Sur 13 Sur 0 -- -- 85
2020-11-16 06:00:00 10.6 7 Sur 14 Sur 0 -- -- 92
2020-11-16 05:00:00 9.8 0 Calma 8 Sur 0 -- -- 91
2020-11-16 04:00:00 10.6 5 Sur 12 Sur 0 -- -- 88
2020-11-16 03:00:00 11.9 0 Calma 21 Noroeste 0 -- -- 84
2020-11-16 02:00:00 12.7 14 Norte 32 Norte 0 -- -- 83
2020-11-16 01:00:00 12.8 16 Noroeste 31 Noroeste 0 -- -- 80
2020-11-16 00:00:00 13.6 15 Noroeste 27 Oeste 0 -- -- 74
2020-11-15 23:00:00 13.3 17 Noroeste 27 Noroeste 0 -- -- 75
2020-11-15 22:00:00 12.7 18 Norte 29 Noroeste 0 -- -- 79
2020-11-15 21:00:00 12.1 17 Noroeste 31 Norte 0 -- -- 82
2020-11-15 20:00:00 11.9 17 Noroeste 33 Oeste 0 -- -- 83
2020-11-15 19:00:00 12.1 23 Noroeste 39 Noroeste 0 -- -- 81
2020-11-15 18:00:00 12.7 21 Noroeste 38 Noroeste 0 -- -- 78
2020-11-15 17:00:00 14.2 6 Noroeste 26 Oeste 0 -- -- 71
2020-11-15 16:00:00 15.8 12 Noroeste 35 Norte 0 -- -- 66
2020-11-15 15:00:00 16.4 15 Noroeste 48 Norte 0 -- -- 62
2020-11-15 14:00:00 16.5 13 Noroeste 44 Oeste 0 -- -- 61
2020-11-15 13:00:00 15.7 30 Oeste 51 Oeste 0 -- -- 65
2020-11-15 12:00:00 14.6 18 Noroeste 39 Noroeste 0 -- -- 70
2020-11-15 11:00:00 13.8 20 Oeste 38 Sudoeste 0 -- -- 71
2020-11-15 10:00:00 12.3 17 Noroeste 40 Noroeste 0 -- -- 76
2020-11-15 09:00:00 11.6 21 Noroeste 41 Noroeste 0 -- -- 78
2020-11-15 08:00:00 11.2 23 Noroeste 42 Noroeste 0 -- -- 79
2020-11-15 07:00:00 10.9 18 Noroeste 37 Oeste 0 -- -- 81
2020-11-15 06:00:00 10.4 16 Noroeste 30 Noroeste 0 -- -- 82
2020-11-15 05:00:00 10.3 9 Noroeste 27 Noroeste 0 -- -- 85
2020-11-15 04:00:00 10.4 13 Noroeste 23 Noroeste 0 -- -- 85
2020-11-15 03:00:00 10.2 12 Oeste 25 Oeste 0 -- -- 88
2020-11-15 02:00:00 10.3 7 Oeste 25 Sudoeste 0 -- -- 89
2020-11-15 01:00:00 10.7 3 Oeste 19 Oeste 0 -- -- 87
2020-11-15 00:00:00 11.1 9 Sudoeste 23 Noroeste 0 -- -- 85
2020-11-14 23:00:00 9.7 10 Oeste 17 Oeste 0 -- -- 91
2020-11-14 22:00:00 9.7 4 Oeste 10 Sudoeste 0 -- -- 91
2020-11-14 21:00:00 9.2 2 Oeste 7 Sudoeste 0 -- -- 90
2020-11-14 20:00:00 10 0 Calma 9 Sudoeste 0 -- -- 88
2020-11-14 19:00:00 10.2 2 Oeste 10 Oeste 0 -- -- 85
2020-11-14 18:00:00 11.6 4 Sudoeste 9 Sur 0 -- -- 83
2020-11-14 17:00:00 13.8 5 Sur 13 Sur 0 -- -- 75
2020-11-14 16:00:00 16 5 Sudoeste 16 Sudoeste 0 -- -- 64
2020-11-14 15:00:00 15.4 10 Sur 16 Sur 0 -- -- 68
2020-11-14 14:00:00 15.5 8 Sur 15 Sur 0 -- -- 69
2020-11-14 13:00:00 15.5 9 Sur 21 Sur 0 -- -- 69
2020-11-14 12:00:00 15.9 9 Sur 18 Sur 0 -- -- 68
2020-11-14 11:00:00 14.3 7 Sudoeste 13 Sudoeste 0 -- -- 70
2020-11-14 10:00:00 12.2 7 Noroeste 15 Sudoeste 0 -- -- 82
2020-11-14 09:00:00 8.8 2 Oeste 10 Oeste 0 -- -- 92
2020-11-14 08:00:00 7.8 4 Oeste 12 Oeste 0 -- -- 93
2020-11-14 07:00:00 7.6 5 Oeste 13 Sudoeste 0 -- -- 93
2020-11-14 06:00:00 7.4 5 Sudoeste 10 Oeste 0 -- -- 93
2020-11-14 05:00:00 6.9 5 Sudoeste 9 Oeste 0 -- -- 94
2020-11-14 04:00:00 6.7 3 Noroeste 13 Noroeste 0 -- -- 97
2020-11-14 03:00:00 6 7 Noroeste 11 Norte 0 -- -- 98
2020-11-14 02:00:00 5.3 3 Noroeste 8 Noroeste 0 -- -- 98
2020-11-14 01:00:00 5.3 3 Noroeste 5 Noroeste 0 -- -- 98
2020-11-14 00:00:00 5.3 3 Noroeste 6 Norte 0 -- -- 97
2020-11-13 23:00:00 5.9 3 Noroeste 5 Noroeste 0 -- -- 96
2020-11-13 22:00:00 6.3 0 Calma 4 Norte 0 -- -- 96
2020-11-13 21:00:00 6.8 2 Noroeste 5 Noroeste 0 -- -- 94
2020-11-13 20:00:00 8.2 3 Noroeste 5 Noroeste 0 -- -- 91
2020-11-13 19:00:00 9.9 0 Calma 6 Sur 0 -- -- 89
2020-11-13 18:00:00 11.3 4 Sur 10 Sur 0 -- -- 85
2020-11-13 17:00:00 13 4 Sur 11 Sur 0 -- -- 75
2020-11-13 16:00:00 15.7 3 Sudeste 9 Sur 0 -- -- 63
2020-11-13 15:00:00 16.1 4 Sudeste 22 Oeste 0 -- -- 64
2020-11-13 14:00:00 14.4 5 Noroeste 15 Norte 0 -- -- 58
2020-11-13 13:00:00 13.8 6 Norte 14 Noroeste 0 -- -- 60
2020-11-13 12:00:00 14.1 5 Sudoeste 13 Sudoeste 0 -- -- 55
2020-11-13 11:00:00 13 4 Noroeste 10 Norte 0 -- -- 65
2020-11-13 10:00:00 11 4 Noroeste 7 Noroeste 0 -- -- 68
2020-11-13 09:00:00 8.2 4 Norte 7 Norte 0 -- -- 81
2020-11-13 08:00:00 6.2 4 Noroeste 7 Noroeste 0 -- -- 90
2020-11-13 07:00:00 6.3 4 Norte 9 Norte 0 -- -- 89
2020-11-13 06:00:00 6.8 5 Norte 9 Norte 0 -- -- 89
2020-11-13 05:00:00 7.5 5 Norte 15 Oeste 0 -- -- 89
2020-11-13 04:00:00 7.7 6 Noroeste 14 Oeste 0 -- -- 91
2020-11-13 03:00:00 7.3 6 Noroeste 10 Noroeste 0 -- -- 93
2020-11-13 02:00:00 6.9 7 Noroeste 10 Noroeste 0 -- -- 93
2020-11-13 01:00:00 7.1 5 Noroeste 10 Norte 0 -- -- 94
2020-11-13 00:00:00 6.6 7 Norte 11 Norte 0 -- -- 93
2020-11-12 23:00:00 6.8 7 Norte 10 Norte 0 -- -- 95
2020-11-12 22:00:00 6.8 5 Norte 8 Norte 0 -- -- 94
2020-11-12 21:00:00 6.8 3 Noroeste 8 Norte 0 -- -- 92
2020-11-12 20:00:00 7.3 3 Noroeste 7 Norte 0 -- -- 90
2020-11-12 19:00:00 8.2 3 Noroeste 4 Noroeste 0 -- -- 88
2020-11-12 18:00:00 10.3 3 Noroeste 5 Norte 0 -- -- 83
2020-11-12 17:00:00 13.2 2 Sudoeste 9 Sur 0 -- -- 75
2020-11-12 16:00:00 13.7 5 Sur 11 Sur 0 -- -- 73
2020-11-12 15:00:00 15.9 2 Este 9 Sur 0 -- -- 68
2020-11-12 14:00:00 15.7 7 Sur 12 Sur 0 -- -- 68
2020-11-12 13:00:00 15.6 7 Sur 13 Sur 0 -- -- 64
2020-11-12 12:00:00 15.7 3 Sur 9 Sur 0 -- -- 62
2020-11-12 11:00:00 13.4 6 Sur 9 Sur 0 -- -- 66
2020-11-12 10:00:00 11.9 3 Sudoeste 11 Norte 0 -- -- 68
2020-11-12 09:00:00 9.9 6 Norte 13 Norte 0 -- -- 71
2020-11-12 08:00:00 9.9 7 Norte 23 Noroeste 0 -- -- 71
2020-11-12 07:00:00 9.9 15 Norte 28 Norte 0 -- -- 73
2020-11-12 06:00:00 9.5 20 Norte 31 Norte 0 -- -- 83
2020-11-12 05:00:00 9.1 21 Noroeste 47 Norte 0 -- -- 86
2020-11-12 04:00:00 9.2 23 Noroeste 44 Noroeste 0 -- -- 86
2020-11-12 03:00:00 9.1 25 Noroeste 43 Norte 0 -- -- 83
2020-11-12 02:00:00 9.1 23 Noroeste 41 Noroeste 0 -- -- 85
2020-11-12 01:00:00 9.2 21 Noroeste 37 Noroeste 0 -- -- 84
2020-11-12 00:00:00 9.3 8 Noroeste 24 Oeste 0 -- -- 82
2020-11-11 23:00:00 9.6 16 Noroeste 30 Oeste 0 -- -- 81
2020-11-11 22:00:00 9.7 7 Noroeste 20 Oeste 0 -- -- 74
2020-11-11 21:00:00 10.1 11 Noroeste 20 Oeste 0 -- -- 79
2020-11-11 20:00:00 10.6 10 Oeste 23 Noroeste 0 -- -- 76
2020-11-11 19:00:00 10.9 9 Oeste 23 Sudoeste 0 -- -- 75
2020-11-11 18:00:00 12 8 Sudoeste 20 Sudoeste 0 -- -- 72
2020-11-11 17:00:00 14.6 5 Oeste 24 Sudoeste 0 -- -- 60
2020-11-11 16:00:00 16.2 8 Oeste 27 Noroeste 0 -- -- 53
2020-11-11 15:00:00 16.2 12 Oeste 26 Noroeste 0 -- -- 50
2020-11-11 14:00:00 15.9 15 Oeste 36 Noroeste 0 -- -- 51
2020-11-11 13:00:00 16 9 Oeste 22 Oeste 0 -- -- 58
2020-11-11 12:00:00 15.6 4 Sudoeste 16 Noroeste 0 -- -- 57
2020-11-11 11:00:00 13.3 8 Oeste 26 Sudoeste 0 -- -- 66
2020-11-11 10:00:00 10.8 13 Noroeste 22 Oeste 0 -- -- 75
2020-11-11 09:00:00 8 4 Noroeste 12 Norte 0 -- -- 91
2020-11-11 08:00:00 6.8 6 Norte 12 Norte 0 -- -- 95
2020-11-11 07:00:00 7.9 8 Norte 12 Noroeste 0 -- -- 93
2020-11-11 06:00:00 7.5 6 Norte 14 Noroeste 0 -- -- 94
2020-11-11 05:00:00 8.1 8 Norte 21 Noroeste 0 -- -- 93
2020-11-11 04:00:00 8.6 12 Norte 20 Noroeste 0 -- -- 92
2020-11-11 03:00:00 8.5 9 Norte 17 Noroeste 0.2 -- -- 94
2020-11-11 02:00:00 8.2 8 Noroeste 17 Noroeste 0 -- -- 96
2020-11-11 01:00:00 8.9 7 Norte 13 Norte 0 -- -- 97
2020-11-11 00:00:00 8.9 7 Norte 15 Nordeste 0 -- -- 97
2020-11-10 23:00:00 8.8 9 Norte 14 Norte 0 -- -- 98
2020-11-10 22:00:00 7.4 3 Norte 6 Noroeste 0 -- -- 96
2020-11-10 21:00:00 8.5 4 Noroeste 6 Noroeste 0 -- -- 97
2020-11-10 20:00:00 8.9 2 Noroeste 5 Norte 0.2 -- -- 96
2020-11-10 19:00:00 9.1 0 Calma 4 Noroeste 0 -- -- 94
2020-11-10 18:00:00 10 0 Calma 5 Norte 0 -- -- 91
2020-11-10 17:00:00 11.4 0 Calma 4 Sudoeste 0 -- -- 92
2020-11-10 16:00:00 11.6 4 Norte 8 Sur 0.2 -- -- 92
2020-11-10 15:00:00 12.9 3 Este 15 Sudeste 0.6 -- -- 84
2020-11-10 14:00:00 14.3 6 Sur 15 Sur 0 -- -- 75
2020-11-10 13:00:00 13.7 4 Sudeste 13 Sur 0 -- -- 73
2020-11-10 12:00:00 15.2 5 Sur 12 Sur 0 -- -- 68
2020-11-10 11:00:00 12.5 3 Sudoeste 12 Noroeste 0 -- -- 76
2020-11-10 10:00:00 8.6 5 Noroeste 9 Norte 0 -- -- 99
2020-11-10 09:00:00 6.5 0 Calma 4 Norte 0 -- -- 100
2020-11-10 08:00:00 5.1 0 Calma 4 Norte 0 -- -- 99
2020-11-10 07:00:00 5 0 Calma 4 Norte 0 -- -- 98
2020-11-10 06:00:00 5.3 0 Calma 4 Noroeste 0 -- -- 99
2020-11-10 05:00:00 5.4 0 Calma 3 Norte 0 -- -- 98
2020-11-10 04:00:00 5.4 0 Calma 3 Noroeste 0 -- -- 98
2020-11-10 03:00:00 5.4 3 Noroeste 5 Norte 0 -- -- 98
2020-11-10 02:00:00 4.8 3 Noroeste 5 Norte 0 -- -- 99
2020-11-10 01:00:00 4.9 4 Norte 6 Noroeste 0 -- -- 97
2020-11-10 00:00:00 5 3 Norte 5 Noroeste 0 -- -- 94
2020-11-09 23:00:00 6.2 3 Noroeste 4 Noroeste 0 -- -- 94
2020-11-09 22:00:00 6.8 2 Norte 8 Norte 0 -- -- 95
2020-11-09 21:00:00 6.8 5 Noroeste 9 Norte 0 -- -- 94
2020-11-09 20:00:00 7.9 2 Noroeste 6 Noroeste 0 -- -- 90
2020-11-09 19:00:00 9.5 3 Norte 12 Sudoeste 0 -- -- 83
2020-11-09 18:00:00 11.8 3 Noroeste 6 Noroeste 0 -- -- 76
2020-11-09 17:00:00 15.3 3 Sur 12 Sur 0 -- -- 68
2020-11-09 16:00:00 16.8 4 Sudoeste 18 Oeste 0 -- -- 57
2020-11-09 15:00:00 17.5 8 Sur 20 Noroeste 0 -- -- 59
2020-11-09 14:00:00 16.2 6 Sur 14 Sur 0 -- -- 65
2020-11-09 13:00:00 17.2 6 Sur 13 Sur 0 -- -- 60
2020-11-09 12:00:00 15.7 5 Sur 15 Sur 0 -- -- 63
2020-11-09 11:00:00 14.8 4 Sur 10 Sudeste 0 -- -- 64
2020-11-09 10:00:00 12 2 Norte 11 Norte 0 -- -- 73
2020-11-09 09:00:00 9.6 8 Noroeste 15 Oeste 0 -- -- 82
2020-11-09 08:00:00 7.1 5 Nordeste 10 Norte 0 -- -- 90
2020-11-09 07:00:00 7.2 2 Noroeste 9 Noroeste 0 -- -- 90
2020-11-09 06:00:00 7.3 6 Noroeste 9 Norte 0 -- -- 91
2020-11-09 05:00:00 7.2 6 Noroeste 10 Norte 0 -- -- 91
2020-11-09 04:00:00 8 6 Noroeste 13 Noroeste 0 -- -- 89
2020-11-09 03:00:00 7.8 9 Noroeste 15 Noroeste 0 -- -- 91
2020-11-09 02:00:00 9.1 3 Norte 9 Sudoeste 0 -- -- 85
2020-11-09 01:00:00 10.4 4 Oeste 20 Oeste 0 -- -- 79
2020-11-09 00:00:00 10.5 12 Noroeste 19 Noroeste 0 -- -- 77
2020-11-08 23:00:00 10.7 9 Noroeste 22 Oeste 0 -- -- 76
2020-11-08 22:00:00 10.3 5 Noroeste 18 Noroeste 0 -- -- 85
2020-11-08 21:00:00 10.5 7 Noroeste 17 Noroeste 0 -- -- 86
2020-11-08 20:00:00 10.9 4 Sudoeste 11 Sur 0 -- -- 79
2020-11-08 19:00:00 12.2 6 Sudoeste 18 Sudoeste 0 -- -- 73
2020-11-08 18:00:00 12.7 10 Oeste 19 Sudoeste 0 -- -- 69
2020-11-08 17:00:00 14.9 8 Oeste 21 Oeste 0 -- -- 63
2020-11-08 16:00:00 16.3 12 Sudoeste 27 Noroeste 0 -- -- 56
2020-11-08 15:00:00 15.9 10 Oeste 22 Noroeste 0 -- -- 58
2020-11-08 14:00:00 18 7 Noroeste 16 Noroeste 0 -- -- 52
2020-11-08 13:00:00 17.6 4 Este 14 Sur 0 -- -- 64
2020-11-08 12:00:00 16.1 10 Sur 13 Sur 0 -- -- 64
2020-11-08 11:00:00 15 6 Sur 17 Oeste 0 -- -- 67
2020-11-08 10:00:00 11.8 8 Noroeste 21 Norte 0 -- -- 75
2020-11-08 09:00:00 10.6 13 Norte 21 Norte 0 -- -- 79
2020-11-08 08:00:00 8.9 9 Norte 16 Norte 0 -- -- 86
2020-11-08 07:00:00 9.4 10 Noroeste 23 Noroeste 0 -- -- 85
2020-11-08 06:00:00 10.3 13 Noroeste 25 Oeste 0 -- -- 81
2020-11-08 05:00:00 10 11 Noroeste 27 Noroeste 0 -- -- 84
2020-11-08 04:00:00 10.6 15 Noroeste 40 Noroeste 0 -- -- 79
2020-11-08 03:00:00 10.8 15 Noroeste 29 Oeste 0 -- -- 78
2020-11-08 02:00:00 10.8 13 Oeste 30 Noroeste 0 -- -- 79
2020-11-08 01:00:00 9.8 7 Sudoeste 13 Oeste 0 -- -- 90
2020-11-08 00:00:00 7.6 2 Noroeste 6 Noroeste 0 -- -- 96
2020-11-07 23:00:00 8.1 3 Noroeste 6 Norte 0 -- -- 94
2020-11-07 22:00:00 9.5 3 Norte 20 Sudoeste 0 -- -- 89
2020-11-07 21:00:00 12.1 11 Sudoeste 19 Sur 0 -- -- 73
2020-11-07 20:00:00 11.2 6 Oeste 16 Sudoeste 0 -- -- 82
2020-11-07 19:00:00 12 9 Sudoeste 23 Sudoeste 0 -- -- 80
2020-11-07 18:00:00 12.1 12 Oeste 23 Sudoeste 0 -- -- 85
2020-11-07 17:00:00 12.3 5 Noroeste 14 Sur 0 -- -- 96
2020-11-07 16:00:00 12.2 9 Sur 19 Sur 0 -- -- 99
2020-11-07 15:00:00 11.9 11 Sur 35 Sur 0.6 -- -- 99
2020-11-07 14:00:00 11.9 12 Sur 29 Sur 1 -- -- 100
2020-11-07 13:00:00 12.6 9 Sudeste 41 Sur 2.2 -- -- 100
2020-11-07 12:00:00 13.7 6 Sudeste 26 Sur 0.4 -- -- 100
2020-11-07 11:00:00 13 5 Este 16 Sudeste 3.2 -- -- 100
2020-11-07 10:00:00 12.5 5 Este 13 Sudeste 3.8 -- -- 100
2020-11-07 09:00:00 12.3 4 Sudeste 17 Sudoeste 1 -- -- 100
2020-11-07 08:00:00 11.9 4 Sudeste 13 Sur 0 -- -- 100
2020-11-07 07:00:00 11.5 3 Sur 14 Sur 0.2 -- -- 100
2020-11-07 06:00:00 11.5 3 Sudeste 10 Sur 0 -- -- 100
2020-11-07 05:00:00 11.5 3 Noroeste 13 Sur 0 -- -- 100
2020-11-07 04:00:00 11.6 4 Sudeste 15 Este 0 -- -- 100
2020-11-07 03:00:00 11.7 6 Sudeste 21 Sudeste 0 -- -- 99
2020-11-07 02:00:00 11.8 4 Sudeste 14 Sudoeste 0 -- -- 99
2020-11-07 01:00:00 11.7 4 Sudeste 18 Este 0 -- -- 99
2020-11-07 00:00:00 12.1 5 Sudeste 18 Sur 0 -- -- 99
2020-11-06 23:00:00 12 5 Sudeste 15 Sudeste 0 -- -- 99
2020-11-06 22:00:00 12.1 5 Sudeste 14 Nordeste 0 -- -- 99
2020-11-06 21:00:00 12.1 5 Sudeste 14 Sur 0 -- -- 99
2020-11-06 20:00:00 12.2 4 Sudeste 14 Sudeste 0 -- -- 98
2020-11-06 19:00:00 12.1 3 Sudeste 9 Este 0 -- -- 97
2020-11-06 18:00:00 12 2 Sudeste 9 Sudeste 0 -- -- 95
2020-11-06 17:00:00 12.5 3 Este 8 Sur 0 -- -- 92
2020-11-06 16:00:00 13 3 Sudeste 8 Sur 0 -- -- 89
2020-11-06 15:00:00 13.3 3 Este 10 Sudeste 0 -- -- 89
2020-11-06 14:00:00 13.4 4 Sudeste 12 Sur 0 -- -- 88
2020-11-06 13:00:00 12.9 4 Sudeste 11 Sur 0 -- -- 93
2020-11-06 12:00:00 12.2 3 Sudeste 10 Este 0 -- -- 96
2020-11-06 11:00:00 12 2 Sur 9 Sur 0 -- -- 96
2020-11-06 10:00:00 11.2 2 Sudeste 6 Sudeste 0 -- -- 98
2020-11-06 09:00:00 10.8 2 Sur 6 Sur 0 -- -- 98
2020-11-06 08:00:00 10.5 2 Sur 6 Este 0 -- -- 98
2020-11-06 07:00:00 10.3 2 Norte 5 Norte 0 -- -- 97
2020-11-06 06:00:00 10.2 2 Norte 8 Norte 0.2 -- -- 97
2020-11-06 05:00:00 10.1 4 Nordeste 13 Nordeste 0 -- -- 97
2020-11-06 04:00:00 10.5 0 Calma 6 Este 0.4 -- -- 97
2020-11-06 03:00:00 10.8 0 Calma 8 Sur 0 -- -- 97
2020-11-06 02:00:00 11 2 Sudeste 9 Sur 0 -- -- 97
2020-11-06 01:00:00 10.9 2 Sudeste 6 Sur 0 -- -- 96
2020-11-06 00:00:00 10.8 0 Calma 7 Sudeste 0 -- -- 97
2020-11-05 23:00:00 10.8 0 Calma 6 Sur 0 -- -- 97
2020-11-05 22:00:00 10.8 3 Este 9 Sur 0 -- -- 96
2020-11-05 21:00:00 10.8 3 Sudeste 9 Sur 0 -- -- 94
2020-11-05 20:00:00 10.8 4 Sur 13 Sur 0 -- -- 92
2020-11-05 19:00:00 10.9 2 Sur 7 Sur 0 -- -- 90
2020-11-05 18:00:00 11.1 0 Calma 5 Sudoeste 0 -- -- 88
2020-11-05 17:00:00 11.6 2 Nordeste 9 Sudeste 0 -- -- 84
2020-11-05 16:00:00 13.1 2 Sur 9 Este 0 -- -- 77
2020-11-05 15:00:00 14 4 Nordeste 15 Nordeste 0 -- -- 72
2020-11-05 14:00:00 15.2 4 Sudeste 11 Sur 0 -- -- 69
2020-11-05 13:00:00 13.7 4 Este 19 Nordeste 0 -- -- 73
2020-11-05 12:00:00 11.4 6 Nordeste 19 Nordeste 0 -- -- 85
2020-11-05 11:00:00 11 4 Este 17 Nordeste 0 -- -- 86
2020-11-05 10:00:00 10.6 4 Nordeste 16 Nordeste 0 -- -- 87
2020-11-05 09:00:00 9.7 5 Nordeste 16 Norte 0 -- -- 90
2020-11-05 08:00:00 8.8 7 Nordeste 18 Nordeste 0 -- -- 95
2020-11-05 07:00:00 6.6 5 Norte 13 Nordeste 0 -- -- 95
2020-11-05 06:00:00 4.9 3 Norte 11 Norte 0 -- -- 92
2020-11-05 05:00:00 5.3 3 Sudoeste 6 Sur 0 -- -- 87
2020-11-05 04:00:00 5.9 2 Oeste 12 Sudeste 0 -- -- 80
2020-11-05 03:00:00 5 4 Nordeste 11 Nordeste 0 -- -- 84
2020-11-05 02:00:00 4.4 2 Norte 8 Noroeste 0 -- -- 86
2020-11-05 01:00:00 5.1 3 Norte 7 Noroeste 0 -- -- 82
2020-11-05 00:00:00 6.9 10 Noroeste 18 Noroeste 0 -- -- 71